createdAt,value
2023-02-25T00:01:11.901Z,30.98
2023-02-25T00:03:40.919Z,30.95
2023-02-25T00:06:09.929Z,31.00
2023-02-25T00:08:36.986Z,32.42
2023-02-25T00:11:06.473Z,31.40
2023-02-25T00:13:34.920Z,29.63
2023-02-25T00:16:06.089Z,31.50
2023-02-25T00:18:33.382Z,32.65
2023-02-25T00:21:03.877Z,32.10
2023-02-25T00:23:30.906Z,32.45
2023-02-25T00:26:02.853Z,30.30
2023-02-25T00:28:29.878Z,32.85
2023-02-25T00:30:57.155Z,32.47
2023-02-25T00:33:24.737Z,34.60
2023-02-25T00:35:51.824Z,32.83
2023-02-25T00:38:18.932Z,31.77
2023-02-25T00:40:46.761Z,30.58
2023-02-25T00:43:13.689Z,30.92
2023-02-25T00:45:40.775Z,33.13
2023-02-25T00:48:08.181Z,32.60
2023-02-25T00:50:36.729Z,32.60
2023-02-25T00:53:03.912Z,31.52
2023-02-25T00:55:33.308Z,31.08
2023-02-25T00:58:01.422Z,30.45
2023-02-25T01:00:35.926Z,32.15
2023-02-25T01:03:07.803Z,32.22
2023-02-25T01:05:34.768Z,32.60
2023-02-25T01:08:02.159Z,32.80
2023-02-25T01:10:29.326Z,33.58
2023-02-25T01:12:56.230Z,33.80
2023-02-25T01:15:23.556Z,33.88
2023-02-25T01:17:50.518Z,33.85
2023-02-25T01:20:22.457Z,32.30
2023-02-25T01:22:49.456Z,32.72
2023-02-25T01:25:17.647Z,33.08
2023-02-25T01:27:50.273Z,33.17
2023-02-25T01:30:18.086Z,34.95
2023-02-25T01:32:45.442Z,32.15
2023-02-25T01:35:12.796Z,31.95
2023-02-25T01:37:39.791Z,33.28
2023-02-25T01:40:07.227Z,32.63
2023-02-25T01:42:35.073Z,34.03
2023-02-25T01:45:17.570Z,30.60
2023-02-25T01:48:16.249Z,29.98
2023-02-25T01:50:49.208Z,30.73
2023-02-25T01:53:21.799Z,27.90
2023-02-25T01:55:49.064Z,26.40
2023-02-25T01:58:17.578Z,27.17
2023-02-25T02:00:45.241Z,25.90
2023-02-25T02:03:16.058Z,27.73
2023-02-25T02:06:08.195Z,25.45
2023-02-25T02:08:36.652Z,25.67
2023-02-25T02:11:04.511Z,23.27
2023-02-25T02:13:34.253Z,25.73
2023-02-25T02:16:23.145Z,24.80
2023-02-25T02:19:24.013Z,25.25
2023-02-25T02:22:07.865Z,24.55
2023-02-25T02:25:02.240Z,23.95
2023-02-25T02:27:53.292Z,26.38
2023-02-25T02:31:10.593Z,23.25
2023-02-25T02:33:59.519Z,25.08
2023-02-25T02:36:52.060Z,22.65
2023-02-25T02:39:34.043Z,23.52
2023-02-25T02:42:28.211Z,22.83
2023-02-25T02:45:09.739Z,23.17
2023-02-25T02:47:42.692Z,23.05
2023-02-25T02:50:13.520Z,24.33
2023-02-25T02:52:45.238Z,22.10
2023-02-25T02:55:33.162Z,22.27
2023-02-25T02:58:29.982Z,22.40
2023-02-25T03:01:10.716Z,20.58
2023-02-25T03:03:43.022Z,20.58
2023-02-25T03:06:15.941Z,21.45
2023-02-25T03:08:48.170Z,22.40
2023-02-25T03:11:15.554Z,20.63
2023-02-25T03:13:45.643Z,21.02
2023-02-25T03:16:19.562Z,19.98
2023-02-25T03:18:55.889Z,21.05
2023-02-25T03:21:30.198Z,21.80
2023-02-25T03:23:59.399Z,20.13
2023-02-25T03:26:32.284Z,21.63
2023-02-25T03:29:03.914Z,20.42
2023-02-25T03:32:06.830Z,22.23
2023-02-25T03:34:40.792Z,21.45
2023-02-25T03:37:16.624Z,23.33
2023-02-25T03:39:49.303Z,22.70
2023-02-25T03:42:23.378Z,21.38
2023-02-25T03:44:56.757Z,22.35
2023-02-25T03:47:25.564Z,20.95
2023-02-25T03:50:19.024Z,20.42
2023-02-25T03:52:48.298Z,20.73
2023-02-25T03:55:35.543Z,21.58
2023-02-25T03:58:03.097Z,21.67
2023-02-25T04:00:32.965Z,21.58
2023-02-25T04:03:00.507Z,22.40
2023-02-25T04:05:28.094Z,23.23
2023-02-25T04:07:57.828Z,22.58
2023-02-25T04:10:26.806Z,21.83
2023-02-25T04:12:53.975Z,21.15
2023-02-25T04:15:21.510Z,20.70
2023-02-25T04:17:48.459Z,21.63
2023-02-25T04:20:16.978Z,21.17
2023-02-25T04:22:44.105Z,20.25
2023-02-25T04:25:11.330Z,19.70
2023-02-25T04:27:38.418Z,20.95
2023-02-25T04:30:06.196Z,19.60
2023-02-25T04:32:33.286Z,18.92
2023-02-25T04:35:03.351Z,20.05
2023-02-25T04:37:31.410Z,20.33
2023-02-25T04:39:58.552Z,19.13
2023-02-25T04:42:25.658Z,20.80
2023-02-25T04:44:52.603Z,22.30
2023-02-25T04:47:19.550Z,21.08
2023-02-25T04:49:46.492Z,20.30
2023-02-25T04:52:15.098Z,20.27
2023-02-25T04:54:42.345Z,20.20
2023-02-25T04:57:11.100Z,21.33
2023-02-25T04:59:38.748Z,20.15
2023-02-25T05:02:07.470Z,21.38
2023-02-25T05:04:35.719Z,20.77
2023-02-25T05:07:03.152Z,22.20
2023-02-25T05:09:30.508Z,21.65
2023-02-25T05:11:57.492Z,21.58
2023-02-25T05:14:24.673Z,22.25
2023-02-25T05:16:51.663Z,20.35
2023-02-25T05:19:22.324Z,23.00
2023-02-25T05:21:53.298Z,20.73
2023-02-25T05:24:23.514Z,20.40
2023-02-25T05:26:51.695Z,21.02
2023-02-25T05:29:18.890Z,20.75
2023-02-25T05:31:45.983Z,21.10
2023-02-25T05:34:13.137Z,21.25
2023-02-25T05:36:41.072Z,20.80
2023-02-25T05:39:08.146Z,20.33
2023-02-25T05:41:35.067Z,19.77
2023-02-25T05:44:02.100Z,20.05
2023-02-25T05:46:29.129Z,20.92
2023-02-25T05:48:56.136Z,19.88
2023-02-25T05:51:23.814Z,20.52
2023-02-25T05:53:52.202Z,19.08
2023-02-25T05:56:22.561Z,19.17
2023-02-25T05:58:49.875Z,20.45
2023-02-25T06:01:23.702Z,20.70
2023-02-25T06:03:58.395Z,20.45
2023-02-25T06:06:28.097Z,19.65
2023-02-25T06:08:55.532Z,20.25
2023-02-25T06:11:25.583Z,19.55
2023-02-25T06:13:54.829Z,19.08
2023-02-25T06:16:23.332Z,20.25
2023-02-25T06:18:51.465Z,17.77
2023-02-25T06:21:18.909Z,19.23
2023-02-25T06:23:46.191Z,17.48
2023-02-25T06:26:14.327Z,19.65
2023-02-25T06:28:41.794Z,18.35
2023-02-25T06:31:10.890Z,17.30
2023-02-25T06:33:39.253Z,18.83
2023-02-25T06:36:07.781Z,18.45
2023-02-25T06:38:35.354Z,20.20
2023-02-25T06:41:11.049Z,17.55
2023-02-25T06:43:38.363Z,19.55
2023-02-25T06:46:11.597Z,18.13
2023-02-25T06:48:38.931Z,18.90
2023-02-25T06:51:09.400Z,19.75
2023-02-25T06:53:37.960Z,18.48
2023-02-25T06:56:05.434Z,18.38
2023-02-25T06:58:32.953Z,18.02
2023-02-25T07:01:00.259Z,18.50
2023-02-25T07:03:27.266Z,16.98
2023-02-25T07:05:54.586Z,17.25
2023-02-25T07:08:21.625Z,19.85
2023-02-25T07:10:48.833Z,17.85
2023-02-25T07:13:15.817Z,20.65
2023-02-25T07:15:42.789Z,19.45
2023-02-25T07:18:09.892Z,18.48
2023-02-25T07:20:39.648Z,20.02
2023-02-25T07:23:06.630Z,20.63
2023-02-25T07:25:33.660Z,20.13
2023-02-25T07:28:00.683Z,19.85
2023-02-25T07:30:27.837Z,19.80
2023-02-25T07:32:54.952Z,20.20
2023-02-25T07:35:21.915Z,19.60
2023-02-25T07:37:48.807Z,20.65
2023-02-25T07:40:16.971Z,19.70
2023-02-25T07:42:44.008Z,20.23
2023-02-25T07:45:12.424Z,19.15
2023-02-25T07:47:40.093Z,19.35
2023-02-25T07:50:10.289Z,19.35
2023-02-25T07:52:38.932Z,20.90
2023-02-25T07:55:07.079Z,19.13
2023-02-25T07:57:35.218Z,19.63
2023-02-25T08:00:02.356Z,20.17
2023-02-25T08:02:39.553Z,20.85
2023-02-25T08:05:08.149Z,18.92
2023-02-25T08:07:35.247Z,18.90
2023-02-25T08:10:02.335Z,18.80
2023-02-25T08:12:29.358Z,19.52
2023-02-25T08:14:57.471Z,18.55
2023-02-25T08:17:24.369Z,17.92
2023-02-25T08:19:52.368Z,19.63
2023-02-25T08:22:19.335Z,19.92
2023-02-25T08:24:46.313Z,19.75
2023-02-25T08:27:13.531Z,19.65
2023-02-25T08:29:40.512Z,20.63
2023-02-25T08:32:08.095Z,21.48
2023-02-25T08:34:35.394Z,19.52
2023-02-25T08:37:02.432Z,20.08
2023-02-25T08:39:31.138Z,20.35
2023-02-25T08:41:58.144Z,20.88
2023-02-25T08:44:25.266Z,19.05
2023-02-25T08:46:57.102Z,21.30
2023-02-25T08:49:24.215Z,19.15
2023-02-25T08:51:51.243Z,20.77
2023-02-25T08:54:18.208Z,19.35
2023-02-25T08:56:45.682Z,19.05
2023-02-25T08:59:14.800Z,19.02
2023-02-25T09:01:45.301Z,19.42
2023-02-25T09:04:13.672Z,19.67
2023-02-25T09:06:40.810Z,18.30
2023-02-25T09:09:07.930Z,18.02
2023-02-25T09:11:34.925Z,19.63
2023-02-25T09:14:01.883Z,19.92
2023-02-25T09:16:29.970Z,18.05
2023-02-25T09:18:56.986Z,17.95
2023-02-25T09:21:24.771Z,19.08
2023-02-25T09:23:52.148Z,18.42
2023-02-25T09:26:21.260Z,17.95
2023-02-25T09:28:49.459Z,17.00
2023-02-25T09:31:17.997Z,17.60
2023-02-25T09:33:46.687Z,16.80
2023-02-25T09:36:16.307Z,17.48
2023-02-25T09:38:45.166Z,17.95
2023-02-25T09:41:48.964Z,18.05
2023-02-25T09:44:22.578Z,17.65
2023-02-25T09:46:56.001Z,15.68
2023-02-25T09:49:56.000Z,15.57
2023-02-25T09:52:28.902Z,16.88
2023-02-25T09:55:09.108Z,15.43
2023-02-25T09:57:41.425Z,14.25
2023-02-25T10:00:18.609Z,15.57
2023-02-25T10:03:15.070Z,16.45
2023-02-25T10:08:32.920Z,16.25
2023-02-25T10:11:27.576Z,16.05
2023-02-25T10:14:25.401Z,16.88
2023-02-25T10:17:07.365Z,17.75
2023-02-25T10:19:45.586Z,18.00
2023-02-25T10:22:32.557Z,17.38
2023-02-25T10:25:14.801Z,16.50
2023-02-25T10:27:48.201Z,15.98
2023-02-25T10:30:23.133Z,15.80
2023-02-25T10:32:51.013Z,15.40
2023-02-25T10:35:28.917Z,14.90
2023-02-25T10:37:55.938Z,15.88
2023-02-25T10:40:25.170Z,16.10
2023-02-25T10:42:54.560Z,16.92
2023-02-25T10:45:27.992Z,15.55
2023-02-25T10:48:13.730Z,15.60
2023-02-25T10:50:46.212Z,15.18
2023-02-25T10:53:18.297Z,14.60
2023-02-25T10:55:54.877Z,14.20
2023-02-25T10:58:23.503Z,14.63
2023-02-25T11:00:57.497Z,12.90
2023-02-25T11:03:26.168Z,12.98
2023-02-25T11:06:07.706Z,13.40
2023-02-25T11:08:34.861Z,12.45
2023-02-25T11:11:20.763Z,12.05
2023-02-25T11:14:13.165Z,12.07
2023-02-25T11:16:42.474Z,12.45
2023-02-25T11:19:31.611Z,12.43
2023-02-25T11:22:05.879Z,11.10
2023-02-25T11:24:38.000Z,10.82
2023-02-25T11:27:07.795Z,10.68
2023-02-25T11:29:42.300Z,10.95
2023-02-25T11:32:18.835Z,11.43
2023-02-25T11:34:56.007Z,12.10
2023-02-25T11:37:43.121Z,10.05
2023-02-25T11:40:32.534Z,11.25
2023-02-25T11:43:05.313Z,12.60
2023-02-25T11:45:35.188Z,12.25
2023-02-25T11:48:16.693Z,12.30
2023-02-25T11:51:02.317Z,10.55
2023-02-25T11:53:52.204Z,11.43
2023-02-25T11:56:19.254Z,11.82
2023-02-25T11:59:25.299Z,11.73
2023-02-25T12:02:24.357Z,9.65
2023-02-25T12:04:54.410Z,10.70
2023-02-25T12:07:55.551Z,10.80
2023-02-25T12:10:46.078Z,11.07
2023-02-25T12:13:16.457Z,11.68
2023-02-25T12:15:57.425Z,11.30
2023-02-25T12:19:01.521Z,12.60
2023-02-25T12:21:55.080Z,12.13
2023-02-25T12:24:49.414Z,11.35
2023-02-25T12:27:47.244Z,10.18
2023-02-25T12:30:38.476Z,10.52
2023-02-25T12:33:31.989Z,12.32
2023-02-25T12:36:24.769Z,11.60
2023-02-25T12:39:08.085Z,11.50
2023-02-25T12:42:21.217Z,9.80
2023-02-25T12:45:15.349Z,10.30
2023-02-25T12:47:45.295Z,10.35
2023-02-25T12:50:34.517Z,10.18
2023-02-25T12:53:23.156Z,10.45
2023-02-25T12:56:08.920Z,10.90
2023-02-25T12:59:10.583Z,9.93
2023-02-25T13:01:55.585Z,11.00
2023-02-25T13:05:00.547Z,11.95
2023-02-25T13:07:45.545Z,10.95
2023-02-25T13:10:21.609Z,10.43
2023-02-25T13:13:19.643Z,11.23
2023-02-25T13:16:39.547Z,11.25
2023-02-25T13:19:31.786Z,11.73
2023-02-25T13:22:04.543Z,11.30
2023-02-25T13:24:37.809Z,11.65
2023-02-25T13:27:21.030Z,10.55
2023-02-25T13:30:02.310Z,12.18
2023-02-25T13:32:52.687Z,12.05
2023-02-25T13:35:29.215Z,10.82
2023-02-25T13:38:05.081Z,11.32
2023-02-25T13:40:55.321Z,11.88
2023-02-25T13:43:43.207Z,12.68
2023-02-25T13:46:37.677Z,14.68
2023-02-25T13:49:23.239Z,10.10
2023-02-25T13:52:07.251Z,8.88
2023-02-25T13:54:59.125Z,8.18
2023-02-25T13:57:48.310Z,12.00
2023-02-25T14:00:54.054Z,10.90
2023-02-25T14:04:05.708Z,11.75
2023-02-25T14:07:14.610Z,11.40
2023-02-25T14:10:00.200Z,11.38
2023-02-25T14:12:44.376Z,10.15
2023-02-25T14:15:17.317Z,11.32
2023-02-25T14:18:06.691Z,11.93
2023-02-25T14:20:44.147Z,13.18
2023-02-25T14:23:49.402Z,13.18
2023-02-25T14:26:35.338Z,14.30
2023-02-25T14:31:38.322Z,14.13
2023-02-25T14:34:15.493Z,14.95
2023-02-25T14:37:01.486Z,15.27
2023-02-25T14:40:18.454Z,15.65
2023-02-25T14:43:02.161Z,16.20
2023-02-25T14:45:36.322Z,16.40
2023-02-25T14:48:11.926Z,17.08
2023-02-25T14:50:47.443Z,16.25
2023-02-25T14:56:11.271Z,17.33
2023-02-25T14:59:02.440Z,16.75
2023-02-25T15:01:35.162Z,17.63
2023-02-25T15:04:38.001Z,16.27
2023-02-25T15:07:29.981Z,16.27
2023-02-25T15:10:17.689Z,17.40
2023-02-25T15:12:50.280Z,15.48
2023-02-25T15:15:26.632Z,15.45
2023-02-25T15:18:26.219Z,16.13
2023-02-25T15:20:53.503Z,17.23
2023-02-25T15:23:21.317Z,16.67
2023-02-25T15:26:01.059Z,15.82
2023-02-25T15:28:30.828Z,17.15
2023-02-25T15:31:01.002Z,12.85
2023-02-25T15:33:40.729Z,13.75
2023-02-25T15:36:19.735Z,13.55
2023-02-25T15:38:56.328Z,14.52
2023-02-25T15:41:29.071Z,14.75
2023-02-25T15:44:00.173Z,15.35
2023-02-25T15:46:36.632Z,14.75
2023-02-25T15:49:21.678Z,14.57
2023-02-25T15:51:56.373Z,13.68
2023-02-25T15:54:29.517Z,13.53
2023-02-25T15:57:00.007Z,14.05
2023-02-25T15:59:46.712Z,13.55
2023-02-25T16:02:28.996Z,12.63
2023-02-25T16:05:28.106Z,14.30
2023-02-25T16:08:18.568Z,13.80
2023-02-25T16:10:49.576Z,14.73
2023-02-25T16:13:26.113Z,13.75
2023-02-25T16:15:56.132Z,13.98
2023-02-25T16:18:34.317Z,14.48
2023-02-25T16:21:08.129Z,13.35
2023-02-25T16:23:40.439Z,10.45
2023-02-25T16:26:29.118Z,12.52
2023-02-25T16:29:02.082Z,13.32
2023-02-25T16:31:39.097Z,12.27
2023-02-25T16:34:28.872Z,12.10
2023-02-25T16:37:43.478Z,11.93
2023-02-25T16:40:31.272Z,8.70
2023-02-25T16:42:59.358Z,8.27
2023-02-25T16:46:03.303Z,12.25
2023-02-25T16:48:38.052Z,12.10
2023-02-25T16:51:18.203Z,8.88
2023-02-25T16:53:47.242Z,12.00
2023-02-25T16:56:20.481Z,8.32
2023-02-25T16:59:07.249Z,9.30
2023-02-25T17:01:36.942Z,10.85
2023-02-25T17:04:15.580Z,10.23
2023-02-25T17:06:42.704Z,9.10
2023-02-25T17:09:23.275Z,9.63
2023-02-25T17:11:55.102Z,11.00
2023-02-25T17:14:22.954Z,9.55
2023-02-25T17:16:50.400Z,14.05
2023-02-25T17:19:22.592Z,13.65
2023-02-25T17:21:58.734Z,10.48
2023-02-25T17:24:30.578Z,10.98
2023-02-25T17:26:57.818Z,9.77
2023-02-25T17:29:35.053Z,10.98
2023-02-25T17:32:20.360Z,11.07
2023-02-25T17:34:49.769Z,15.10
2023-02-25T17:37:18.436Z,10.55
2023-02-25T17:39:45.733Z,11.07
2023-02-25T17:42:28.001Z,10.15
2023-02-25T17:44:55.061Z,11.40
2023-02-25T17:47:27.663Z,11.23
2023-02-25T17:49:55.469Z,11.57
2023-02-25T17:52:31.916Z,12.70
2023-02-25T17:55:00.661Z,11.32
2023-02-25T17:57:29.424Z,11.00
2023-02-25T18:00:05.269Z,10.45
2023-02-25T18:02:40.640Z,13.52
2023-02-25T18:05:13.546Z,13.13
2023-02-25T18:07:42.660Z,11.15
2023-02-25T18:10:33.389Z,11.75
2023-02-25T18:13:03.516Z,11.55
2023-02-25T18:15:33.501Z,12.25
2023-02-25T18:18:03.377Z,12.70
2023-02-25T18:20:33.169Z,12.25
2023-02-25T18:23:06.602Z,12.73
2023-02-25T18:25:39.599Z,15.00
2023-02-25T18:28:26.777Z,12.40
2023-02-25T18:30:54.003Z,13.63
2023-02-25T18:33:20.973Z,12.13
2023-02-25T18:35:49.206Z,14.02
2023-02-25T18:38:19.148Z,12.65
2023-02-25T18:40:47.021Z,13.27
2023-02-25T18:43:19.482Z,13.27
2023-02-25T18:45:46.945Z,12.55
2023-02-25T18:48:14.013Z,12.85
2023-02-25T18:50:44.485Z,11.77
2023-02-25T18:53:17.283Z,14.35
2023-02-25T18:55:44.385Z,14.13
2023-02-25T18:58:16.648Z,14.85
2023-02-25T19:00:46.085Z,15.60
2023-02-25T19:03:26.986Z,15.98
2023-02-25T19:05:54.062Z,14.57
2023-02-25T19:08:21.292Z,19.70
2023-02-25T19:10:48.360Z,21.67
2023-02-25T19:13:33.106Z,21.05
2023-02-25T19:16:00.476Z,21.80
2023-02-25T19:18:27.436Z,18.48
2023-02-25T19:20:54.425Z,17.83
2023-02-25T19:23:21.556Z,18.98
2023-02-25T19:25:52.094Z,17.42
2023-02-25T19:28:19.020Z,16.10
2023-02-25T19:30:45.949Z,17.08
2023-02-25T19:33:14.122Z,18.90
2023-02-25T19:35:42.959Z,17.27
2023-02-25T19:38:18.646Z,16.70
2023-02-25T19:40:46.958Z,16.20
2023-02-25T19:43:17.566Z,16.48
2023-02-25T19:45:44.725Z,17.23
2023-02-25T19:48:12.010Z,17.27
2023-02-25T19:50:41.360Z,17.05
2023-02-25T19:53:08.592Z,16.90
2023-02-25T19:55:35.623Z,16.52
2023-02-25T19:58:02.782Z,17.40
2023-02-25T20:00:29.766Z,18.23
2023-02-25T20:02:56.919Z,18.65
2023-02-25T20:05:24.736Z,15.50
2023-02-25T20:07:52.017Z,16.65
2023-02-25T20:10:19.137Z,14.93
2023-02-25T20:12:47.403Z,16.75
2023-02-25T20:15:15.556Z,15.85
2023-02-25T20:17:44.205Z,15.82
2023-02-25T20:20:12.696Z,16.73
2023-02-25T20:22:40.489Z,17.05
2023-02-25T20:25:09.933Z,16.08
2023-02-25T20:27:39.624Z,18.27
2023-02-25T20:30:07.734Z,17.67
2023-02-25T20:32:34.942Z,16.17
2023-02-25T20:35:02.468Z,17.83
2023-02-25T20:37:35.760Z,16.90
2023-02-25T20:40:07.863Z,17.48
2023-02-25T20:42:35.102Z,17.10
2023-02-25T20:45:02.285Z,26.13
2023-02-25T20:47:32.415Z,19.05
2023-02-25T20:49:59.618Z,17.42
2023-02-25T20:52:27.798Z,17.50
2023-02-25T20:55:13.351Z,20.25
2023-02-25T20:57:40.262Z,19.75
2023-02-25T21:00:09.111Z,19.92
2023-02-25T21:02:36.254Z,18.75
2023-02-25T21:05:03.293Z,19.60
2023-02-25T21:07:30.401Z,19.85
2023-02-25T21:09:57.371Z,19.48
2023-02-25T21:12:24.392Z,19.35
2023-02-25T21:14:52.340Z,19.08
2023-02-25T21:17:19.361Z,20.15
2023-02-25T21:19:46.326Z,19.15
2023-02-25T21:22:13.295Z,21.63
2023-02-25T21:24:40.257Z,19.95
2023-02-25T21:27:07.181Z,21.55
2023-02-25T21:29:34.116Z,20.00
2023-02-25T21:32:01.156Z,20.40
2023-02-25T21:34:28.231Z,20.70
2023-02-25T21:36:58.339Z,20.60
2023-02-25T21:39:26.044Z,19.98
2023-02-25T21:41:53.362Z,21.00
2023-02-25T21:44:20.572Z,21.33
2023-02-25T21:46:47.700Z,21.13
2023-02-25T21:49:14.777Z,21.52
2023-02-25T21:51:41.929Z,20.80
2023-02-25T21:54:09.537Z,19.27
2023-02-25T21:56:36.563Z,21.20
2023-02-25T21:59:05.523Z,21.23
2023-02-25T22:01:42.459Z,21.27
2023-02-25T22:04:09.993Z,20.48
2023-02-25T22:06:37.435Z,18.40
2023-02-25T22:09:04.548Z,20.50
2023-02-25T22:11:34.771Z,20.88
2023-02-25T22:14:03.398Z,19.05
2023-02-25T22:16:30.364Z,18.75
2023-02-25T22:18:57.500Z,19.88
2023-02-25T22:21:29.876Z,20.05
2023-02-25T22:23:59.500Z,20.55
2023-02-25T22:26:29.656Z,19.40
2023-02-25T22:28:58.863Z,19.98
2023-02-25T22:31:26.370Z,20.85
2023-02-25T22:33:53.875Z,21.73
2023-02-25T22:36:20.874Z,20.63
2023-02-25T22:38:49.342Z,20.75
2023-02-25T22:41:19.721Z,23.33
2023-02-25T22:43:47.156Z,26.60
2023-02-25T22:46:16.535Z,24.48
2023-02-25T22:48:45.102Z,26.42
2023-02-25T22:51:12.699Z,30.02
2023-02-25T22:53:40.755Z,27.35
2023-02-25T22:56:09.997Z,22.08
2023-02-25T22:58:40.428Z,21.80
2023-02-25T23:01:12.396Z,22.98
2023-02-25T23:03:39.644Z,21.95
2023-02-25T23:06:07.305Z,21.63
2023-02-25T23:08:34.892Z,21.13
2023-02-25T23:11:17.291Z,20.88
2023-02-25T23:13:47.521Z,21.20
2023-02-25T23:16:23.529Z,20.83
2023-02-25T23:18:52.052Z,20.63
2023-02-25T23:21:20.217Z,21.13
2023-02-25T23:23:49.947Z,20.20
2023-02-25T23:26:19.573Z,20.08
2023-02-25T23:28:47.435Z,20.50
2023-02-25T23:31:22.750Z,21.05
2023-02-25T23:33:49.910Z,23.08
2023-02-25T23:36:17.018Z,21.83
2023-02-25T23:38:44.025Z,22.05
2023-02-25T23:41:11.035Z,24.55
2023-02-25T23:43:38.044Z,22.85
2023-02-25T23:46:06.169Z,21.58
2023-02-25T23:48:33.211Z,23.92
2023-02-25T23:51:07.580Z,23.58
2023-02-25T23:53:35.302Z,23.13
2023-02-25T23:56:10.777Z,23.90
2023-02-25T23:58:38.426Z,23.08
